Time;durP1;ratioP1;P1;durP2;ratioP2;P2;SDS_P1;SDS_P2;PMS_P1;PMS_P2;Temp;Humidity;BMP_temperature;BMP_pressure;BME280_temperature;BME280_humidity;BME280_pressure;Samples;Min_cycle;Max_cycle;Signal;HPM_P1;HPM_P2
2021/08/17 00:01:26;;;;;;;15.60;7.30;;;;;;;;;;4956181;28;20016;-66
2021/08/17 00:03:52;;;;;;;14.65;6.68;;;;;;;;;;4959001;28;20026;-67
2021/08/17 00:06:18;;;;;;;14.40;7.13;;;;;;;;;;4963382;28;20027;-66
2021/08/17 00:08:47;;;;;;;15.95;6.78;;;;;;;;;;4957306;28;20023;-67
2021/08/17 00:11:13;;;;;;;15.32;6.93;;;;;;;;;;4959997;28;20034;-65
2021/08/17 00:13:40;;;;;;;18.13;6.88;;;;;;;;;;4955487;28;20092;-64
2021/08/17 00:16:06;;;;;;;14.98;7.05;;;;;;;;;;4958174;28;20082;-67
2021/08/17 00:18:32;;;;;;;12.63;7.25;;;;;;;;;;4954783;28;20540;-65
2021/08/17 00:20:58;;;;;;;14.40;7.13;;;;;;;;;;4962346;28;20028;-64
2021/08/17 00:23:24;;;;;;;13.68;7.20;;;;;;;;;;4954358;29;20039;-66
2021/08/17 00:25:50;;;;;;;12.43;6.93;;;;;;;;;;4953942;29;20528;-67
2021/08/17 00:28:16;;;;;;;11.98;6.38;;;;;;;;;;4957896;28;20394;-67
2021/08/17 00:30:42;;;;;;;13.88;6.72;;;;;;;;;;4953038;29;20058;-67
2021/08/17 00:33:08;;;;;;;12.43;6.45;;;;;;;;;;4956429;28;20379;-66
2021/08/17 00:35:36;;;;;;;14.75;6.50;;;;;;;;;;4954503;28;20110;-67
2021/08/17 00:38:02;;;;;;;15.27;6.30;;;;;;;;;;4959742;28;20381;-66
2021/08/17 00:40:31;;;;;;;14.65;6.25;;;;;;;;;;4957176;28;20422;-67
2021/08/17 00:42:57;;;;;;;12.40;6.60;;;;;;;;;;4962661;28;20062;-66
2021/08/17 00:45:24;;;;;;;12.60;6.07;;;;;;;;;;4954897;28;20027;-66
2021/08/17 00:47:51;;;;;;;9.85;6.18;;;;;;;;;;4961010;28;20130;-66
2021/08/17 00:50:18;;;;;;;16.98;6.13;;;;;;;;;;4963912;28;20054;-67
2021/08/17 00:52:44;;;;;;;11.65;6.43;;;;;;;;;;4962600;28;20054;-67
2021/08/17 00:55:11;;;;;;;13.60;6.10;;;;;;;;;;4957544;28;20031;-67
2021/08/17 00:57:39;;;;;;;12.25;6.70;;;;;;;;;;4961682;28;20040;-67
2021/08/17 01:00:06;;;;;;;12.80;6.50;;;;;;;;;;4954728;28;20031;-68
2021/08/17 01:02:32;;;;;;;12.45;6.30;;;;;;;;;;4955546;28;20035;-66
2021/08/17 01:05:03;;;;;;;11.88;6.32;;;;;;;;;;4955407;28;20027;-66
2021/08/17 01:07:29;;;;;;;10.38;6.35;;;;;;;;;;4955414;28;20105;-66
2021/08/17 01:09:55;;;;;;;13.82;6.03;;;;;;;;;;4957363;28;20078;-68
2021/08/17 01:12:21;;;;;;;13.15;6.60;;;;;;;;;;4956193;28;20473;-67
2021/08/17 01:14:48;;;;;;;14.73;6.50;;;;;;;;;;4954050;28;20556;-67
2021/08/17 01:17:16;;;;;;;13.48;6.75;;;;;;;;;;4955907;28;20038;-67
2021/08/17 01:19:42;;;;;;;15.98;6.22;;;;;;;;;;4961334;28;20478;-68
2021/08/17 01:22:08;;;;;;;15.32;6.72;;;;;;;;;;4956740;28;20474;-65
2021/08/17 01:24:35;;;;;;;12.63;5.95;;;;;;;;;;4961825;28;20045;-66
2021/08/17 01:27:01;;;;;;;12.20;6.32;;;;;;;;;;4956527;28;20497;-67
2021/08/17 01:29:27;;;;;;;12.07;6.25;;;;;;;;;;4957437;28;20037;-67
2021/08/17 01:31:53;;;;;;;14.68;5.95;;;;;;;;;;4959456;28;20061;-64
2021/08/17 01:34:19;;;;;;;13.93;6.60;;;;;;;;;;4955621;28;20035;-67
2021/08/17 01:36:46;;;;;;;10.23;5.97;;;;;;;;;;4954302;28;20046;-68
2021/08/17 01:39:12;;;;;;;11.07;6.15;;;;;;;;;;4958861;28;20027;-64
2021/08/17 01:41:38;;;;;;;15.13;6.63;;;;;;;;;;4957049;28;20031;-68
2021/08/17 01:44:12;;;;;;;12.10;6.05;;;;;;;;;;4958533;28;20030;-64
2021/08/17 01:46:39;;;;;;;11.20;6.45;;;;;;;;;;4967965;28;20039;-66
2021/08/17 01:49:05;;;;;;;12.75;6.68;;;;;;;;;;4971616;28;20038;-67
2021/08/17 01:51:31;;;;;;;11.68;6.20;;;;;;;;;;4970803;28;20027;-67
2021/08/17 01:53:57;;;;;;;17.25;7.57;;;;;;;;;;4970200;28;20106;-66
2021/08/17 01:56:23;;;;;;;19.65;8.07;;;;;;;;;;4972077;28;20375;-69
2021/08/17 01:58:49;;;;;;;16.38;7.57;;;;;;;;;;4972088;28;20493;-70
2021/08/17 02:01:16;;;;;;;17.40;7.97;;;;;;;;;;4976764;28;20027;-69
2021/08/17 02:03:42;;;;;;;18.48;7.68;;;;;;;;;;4972051;28;20117;-69
2021/08/17 02:06:08;;;;;;;16.55;7.97;;;;;;;;;;4972401;28;20034;-69
2021/08/17 02:08:35;;;;;;;16.58;7.35;;;;;;;;;;4969770;28;20038;-69
2021/08/17 02:11:01;;;;;;;16.02;7.60;;;;;;;;;;4974957;28;20091;-68
2021/08/17 02:13:28;;;;;;;27.60;7.55;;;;;;;;;;4972034;28;20046;-69
2021/08/17 02:15:59;;;;;;;16.95;7.53;;;;;;;;;;4971808;28;20019;-69
2021/08/17 02:18:25;;;;;;;17.35;7.63;;;;;;;;;;4971923;28;20384;-68
2021/08/17 02:20:51;;;;;;;17.73;7.20;;;;;;;;;;4970791;28;20413;-63
2021/08/17 02:23:17;;;;;;;12.85;6.50;;;;;;;;;;4971267;28;20027;-67
2021/08/17 02:25:43;;;;;;;19.63;7.70;;;;;;;;;;4972080;28;20066;-67
2021/08/17 02:28:09;;;;;;;19.35;7.95;;;;;;;;;;4975667;28;20026;-69
2021/08/17 02:30:35;;;;;;;13.38;7.75;;;;;;;;;;4971506;28;20037;-68
2021/08/17 02:33:01;;;;;;;14.88;7.68;;;;;;;;;;4971700;28;20043;-69
2021/08/17 02:35:28;;;;;;;18.73;7.70;;;;;;;;;;4971254;28;20077;-69
2021/08/17 02:37:54;;;;;;;21.95;7.80;;;;;;;;;;4970659;28;20035;-68
2021/08/17 02:40:20;;;;;;;19.77;8.10;;;;;;;;;;4971813;28;20509;-69
2021/08/17 02:42:46;;;;;;;23.33;8.02;;;;;;;;;;4971825;28;20035;-68
2021/08/17 02:45:12;;;;;;;22.42;7.40;;;;;;;;;;4972197;28;20102;-68
2021/08/17 02:47:38;;;;;;;22.00;7.25;;;;;;;;;;4978179;28;20046;-68
2021/08/17 02:50:05;;;;;;;22.35;6.70;;;;;;;;;;4970890;28;20027;-69
2021/08/17 02:52:31;;;;;;;26.10;7.10;;;;;;;;;;4974960;28;20062;-66
2021/08/17 02:54:59;;;;;;;22.63;7.30;;;;;;;;;;4975063;28;20035;-68
2021/08/17 02:57:25;;;;;;;29.05;6.68;;;;;;;;;;4970884;28;20023;-69
2021/08/17 02:59:51;;;;;;;22.02;6.30;;;;;;;;;;4961649;28;20439;-68
2021/08/17 03:02:19;;;;;;;21.80;5.28;;;;;;;;;;4975677;28;20405;-69
2021/08/17 03:04:45;;;;;;;21.83;5.32;;;;;;;;;;4974547;28;20026;-67
2021/08/17 03:07:11;;;;;;;16.88;4.80;;;;;;;;;;4974512;28;20066;-71
2021/08/17 03:09:38;;;;;;;14.75;4.80;;;;;;;;;;4974562;28;20027;-70
2021/08/17 03:12:04;;;;;;;15.60;4.70;;;;;;;;;;4976816;28;20106;-68
2021/08/17 03:14:30;;;;;;;21.30;4.70;;;;;;;;;;4974838;28;20492;-70
2021/08/17 03:16:56;;;;;;;14.05;4.13;;;;;;;;;;4976731;28;20448;-70
2021/08/17 03:19:22;;;;;;;10.50;4.03;;;;;;;;;;4974768;28;21878;-68
2021/08/17 03:21:48;;;;;;;21.55;4.90;;;;;;;;;;4974782;28;20103;-68
2021/08/17 03:24:14;;;;;;;25.75;4.65;;;;;;;;;;4975387;28;20034;-66
2021/08/17 03:26:40;;;;;;;17.40;4.65;;;;;;;;;;4975696;28;20495;-70
2021/08/17 03:29:06;;;;;;;17.63;4.65;;;;;;;;;;4974324;28;20039;-69
2021/08/17 03:31:32;;;;;;;17.35;4.88;;;;;;;;;;4975503;28;20054;-70
2021/08/17 03:34:00;;;;;;;15.10;4.90;;;;;;;;;;4979326;28;20117;-67
2021/08/17 03:36:26;;;;;;;17.65;5.03;;;;;;;;;;4974503;28;20023;-68
2021/08/17 03:38:52;;;;;;;14.00;4.60;;;;;;;;;;4974703;28;20034;-69
2021/08/17 03:41:18;;;;;;;14.75;4.53;;;;;;;;;;4974940;28;20065;-70
2021/08/17 03:43:44;;;;;;;14.43;4.55;;;;;;;;;;4974088;28;20037;-70
2021/08/17 03:46:10;;;;;;;10.85;4.32;;;;;;;;;;4974169;28;20046;-69
2021/08/17 03:48:36;;;;;;;14.00;4.80;;;;;;;;;;4973913;28;20047;-70
2021/08/17 03:51:02;;;;;;;19.15;4.50;;;;;;;;;;4973808;28;20493;-70
2021/08/17 03:53:28;;;;;;;16.63;4.00;;;;;;;;;;4973928;28;20039;-70
2021/08/17 03:55:54;;;;;;;14.10;4.57;;;;;;;;;;4974291;28;20023;-70
2021/08/17 03:58:20;;;;;;;10.40;4.00;;;;;;;;;;4974179;28;20031;-69
2021/08/17 04:00:47;;;;;;;9.32;3.75;;;;;;;;;;4973287;28;20019;-69
2021/08/17 04:03:13;;;;;;;11.27;3.70;;;;;;;;;;4972396;28;20035;-71
2021/08/17 04:05:39;;;;;;;7.25;3.65;;;;;;;;;;4982107;28;20049;-69
2021/08/17 04:08:05;;;;;;;9.05;3.60;;;;;;;;;;4971944;28;20480;-70
2021/08/17 04:10:32;;;;;;;8.57;3.40;;;;;;;;;;4970300;28;20051;-68
2021/08/17 04:12:58;;;;;;;8.27;3.17;;;;;;;;;;4976495;28;20029;-69
2021/08/17 04:15:24;;;;;;;9.20;3.28;;;;;;;;;;4977709;28;20069;-85
2021/08/17 04:17:50;;;;;;;12.05;3.40;;;;;;;;;;4972266;28;20035;-70
2021/08/17 04:20:16;;;;;;;9.15;3.65;;;;;;;;;;4973272;28;20376;-68
2021/08/17 04:22:42;;;;;;;10.02;3.55;;;;;;;;;;4975622;28;20030;-66
2021/08/17 04:25:09;;;;;;;7.28;3.45;;;;;;;;;;4972372;28;20027;-67
2021/08/17 04:27:35;;;;;;;14.43;3.85;;;;;;;;;;4973348;28;20396;-70
2021/08/17 04:30:01;;;;;;;12.90;3.95;;;;;;;;;;4975047;28;20027;-70
2021/08/17 04:32:28;;;;;;;7.90;3.70;;;;;;;;;;4975149;28;20026;-67
2021/08/17 04:34:54;;;;;;;7.57;3.40;;;;;;;;;;4973699;28;20441;-70
2021/08/17 04:37:20;;;;;;;11.70;3.60;;;;;;;;;;4975037;28;20101;-70
2021/08/17 04:39:46;;;;;;;8.00;3.85;;;;;;;;;;4973318;28;20041;-75
2021/08/17 04:42:12;;;;;;;6.30;3.78;;;;;;;;;;4971172;28;20047;-75
2021/08/17 04:44:38;;;;;;;11.25;4.07;;;;;;;;;;4973876;28;20023;-77
2021/08/17 04:47:04;;;;;;;9.70;3.90;;;;;;;;;;4978071;28;20050;-63
2021/08/17 04:49:31;;;;;;;10.35;4.15;;;;;;;;;;4974068;28;20540;-73
2021/08/17 04:51:57;;;;;;;10.45;4.65;;;;;;;;;;4972887;28;20018;-78
2021/08/17 04:54:24;;;;;;;9.15;4.13;;;;;;;;;;4972478;28;20514;-66
2021/08/17 04:56:50;;;;;;;9.63;3.92;;;;;;;;;;4973165;28;20493;-78
2021/08/17 04:59:16;;;;;;;8.13;4.18;;;;;;;;;;4974664;28;20484;-63
2021/08/17 05:01:42;;;;;;;9.45;4.20;;;;;;;;;;4974081;28;20035;-77
2021/08/17 05:04:08;;;;;;;11.10;4.20;;;;;;;;;;4973769;28;20081;-75
2021/08/17 05:06:35;;;;;;;14.07;4.60;;;;;;;;;;4978407;28;20034;-67
2021/08/17 05:09:01;;;;;;;7.82;3.88;;;;;;;;;;4975704;28;20438;-71
2021/08/17 05:11:27;;;;;;;8.25;4.63;;;;;;;;;;4976057;28;20037;-81
2021/08/17 05:13:53;;;;;;;10.10;4.07;;;;;;;;;;4976306;28;20085;-77
2021/08/17 05:16:19;;;;;;;8.13;4.22;;;;;;;;;;4972466;28;20033;-76
2021/08/17 05:18:45;;;;;;;8.07;4.57;;;;;;;;;;4979676;28;20536;-77
2021/08/17 05:21:11;;;;;;;8.18;4.13;;;;;;;;;;4976835;28;20038;-77
2021/08/17 05:23:37;;;;;;;7.47;4.03;;;;;;;;;;4973743;28;20039;-76
2021/08/17 05:26:03;;;;;;;9.52;4.43;;;;;;;;;;4971840;28;20106;-75
2021/08/17 05:28:30;;;;;;;9.48;3.97;;;;;;;;;;4971153;28;20387;-73
2021/08/17 05:30:56;;;;;;;9.02;4.20;;;;;;;;;;4970801;28;20106;-68
2021/08/17 05:33:22;;;;;;;7.70;4.10;;;;;;;;;;4973078;28;20042;-69
2021/08/17 05:35:48;;;;;;;7.90;4.03;;;;;;;;;;4974246;28;20130;-68
2021/08/17 05:38:14;;;;;;;9.00;4.32;;;;;;;;;;4971883;28;20030;-74
2021/08/17 05:40:40;;;;;;;8.98;4.40;;;;;;;;;;4973085;28;20022;-72
2021/08/17 05:43:06;;;;;;;9.45;4.75;;;;;;;;;;4975262;28;20484;-69
2021/08/17 05:45:33;;;;;;;7.93;4.50;;;;;;;;;;4973182;28;20033;-66
2021/08/17 05:47:59;;;;;;;10.57;4.45;;;;;;;;;;4971351;28;20042;-77
2021/08/17 05:50:25;;;;;;;10.48;4.50;;;;;;;;;;4964842;28;20037;-73
2021/08/17 05:52:54;;;;;;;9.32;4.93;;;;;;;;;;4970003;28;20497;-73
2021/08/17 05:55:24;;;;;;;9.05;4.70;;;;;;;;;;4971689;28;20048;-74
2021/08/17 05:57:56;;;;;;;8.60;4.50;;;;;;;;;;4991967;28;20026;-73
2021/08/17 06:00:22;;;;;;;9.32;4.70;;;;;;;;;;4975949;28;20043;-82
2021/08/17 06:02:49;;;;;;;10.55;5.05;;;;;;;;;;4972129;28;20059;-87
2021/08/17 06:05:15;;;;;;;8.20;4.68;;;;;;;;;;4963248;28;20089;-83
2021/08/17 06:07:45;;;;;;;13.65;4.82;;;;;;;;;;4954978;28;20480;-71
2021/08/17 06:10:11;;;;;;;14.48;5.00;;;;;;;;;;4976159;28;20018;-70
2021/08/17 06:12:37;;;;;;;9.38;5.25;;;;;;;;;;4961029;28;20091;-69
2021/08/17 06:15:04;;;;;;;8.80;5.05;;;;;;;;;;4972822;28;20277;-68
2021/08/17 06:17:30;;;;;;;9.88;5.20;;;;;;;;;;4970987;28;20089;-74
2021/08/17 06:20:14;;;;;;;7.15;4.85;;;;;;;;;;4973104;28;20062;-83
2021/08/17 06:22:40;;;;;;;12.18;5.07;;;;;;;;;;4968141;28;20142;-82
2021/08/17 06:25:07;;;;;;;7.82;4.57;;;;;;;;;;4972960;28;20043;-85
2021/08/17 06:27:46;;;;;;;10.02;4.88;;;;;;;;;;4973222;28;20366;-83
2021/08/17 06:30:18;;;;;;;8.52;5.03;;;;;;;;;;4957598;28;20507;-76
2021/08/17 06:32:44;;;;;;;12.20;4.88;;;;;;;;;;4975091;28;20064;-72
2021/08/17 06:35:10;;;;;;;11.52;5.25;;;;;;;;;;4973363;28;20564;-79
2021/08/17 06:37:36;;;;;;;10.25;5.45;;;;;;;;;;4978015;28;20086;-80
2021/08/17 06:40:03;;;;;;;10.77;4.90;;;;;;;;;;4975409;28;20031;-79
2021/08/17 06:42:29;;;;;;;8.70;4.70;;;;;;;;;;4977449;28;20027;-76
2021/08/17 06:44:55;;;;;;;10.30;5.07;;;;;;;;;;4962529;28;20392;-72
2021/08/17 06:47:21;;;;;;;11.57;5.30;;;;;;;;;;4974766;28;20405;-73
2021/08/17 06:49:47;;;;;;;11.85;4.95;;;;;;;;;;4981273;28;20054;-82
2021/08/17 06:52:13;;;;;;;10.10;5.20;;;;;;;;;;4973327;28;20027;-81
2021/08/17 06:54:39;;;;;;;7.20;4.63;;;;;;;;;;4973205;28;20035;-70
2021/08/17 06:57:38;;;;;;;9.07;5.22;;;;;;;;;;4978322;28;20416;-70
2021/08/17 07:00:12;;;;;;;10.10;5.20;;;;;;;;;;4980805;28;20066;-72
2021/08/17 07:02:42;;;;;;;8.55;5.03;;;;;;;;;;4978444;28;20027;-71
2021/08/17 07:05:08;;;;;;;10.18;5.47;;;;;;;;;;4961821;28;20504;-78
2021/08/17 07:07:34;;;;;;;10.40;5.10;;;;;;;;;;4974337;28;20027;-75
2021/08/17 07:10:01;;;;;;;12.13;5.18;;;;;;;;;;4979169;28;20374;-80
2021/08/17 07:12:27;;;;;;;10.18;5.32;;;;;;;;;;4973786;28;20026;-73
2021/08/17 07:14:53;;;;;;;9.57;5.10;;;;;;;;;;4978051;28;20046;-84
2021/08/17 07:17:19;;;;;;;10.50;5.55;;;;;;;;;;4974817;28;20030;-77
2021/08/17 07:19:45;;;;;;;18.02;5.65;;;;;;;;;;4978328;28;20066;-72
2021/08/17 07:22:12;;;;;;;9.82;5.32;;;;;;;;;;4973258;28;20077;-77
2021/08/17 07:24:38;;;;;;;9.40;5.40;;;;;;;;;;4978594;28;20027;-87
2021/08/17 07:27:04;;;;;;;9.50;5.07;;;;;;;;;;4980633;28;20064;-83
2021/08/17 07:29:30;;;;;;;7.72;5.00;;;;;;;;;;4980873;28;20536;-76
2021/08/17 07:31:56;;;;;;;11.32;4.88;;;;;;;;;;4959903;28;20228;-79
2021/08/17 07:34:23;;;;;;;8.90;5.15;;;;;;;;;;4962266;28;20512;-72
2021/08/17 07:36:49;;;;;;;8.23;4.75;;;;;;;;;;4975177;28;20023;-80
2021/08/17 07:39:15;;;;;;;8.80;5.07;;;;;;;;;;4960338;28;20067;-68
2021/08/17 07:41:41;;;;;;;12.05;4.93;;;;;;;;;;4976184;28;20050;-70
2021/08/17 07:44:08;;;;;;;15.85;5.57;;;;;;;;;;4975040;28;20177;-72
2021/08/17 07:46:34;;;;;;;9.93;5.53;;;;;;;;;;4972928;28;20062;-66
2021/08/17 07:49:00;;;;;;;10.85;4.90;;;;;;;;;;4976437;28;20026;-68
2021/08/17 07:51:28;;;;;;;12.45;4.82;;;;;;;;;;4974796;28;20085;-68
2021/08/17 07:53:54;;;;;;;24.05;5.50;;;;;;;;;;4974141;28;20038;-68
2021/08/17 07:56:44;;;;;;;12.80;4.78;;;;;;;;;;4971975;28;20062;-76
2021/08/17 07:59:10;;;;;;;9.27;4.63;;;;;;;;;;4913949;29;20057;-82
2021/08/17 08:02:05;;;;;;;7.50;4.40;;;;;;;;;;4917889;29;20074;-80
2021/08/17 08:04:32;;;;;;;17.27;4.97;;;;;;;;;;4910100;29;20247;-75
2021/08/17 08:07:00;;;;;;;13.38;4.97;;;;;;;;;;4915758;29;20024;-81
2021/08/17 08:09:26;;;;;;;9.82;5.13;;;;;;;;;;4911663;29;20546;-74
2021/08/17 08:11:52;;;;;;;11.07;4.80;;;;;;;;;;4913623;29;20080;-72
2021/08/17 08:14:18;;;;;;;8.95;5.28;;;;;;;;;;4911819;29;20040;-80
2021/08/17 08:16:44;;;;;;;8.43;4.82;;;;;;;;;;4911338;29;20131;-78
2021/08/17 08:19:10;;;;;;;18.33;5.78;;;;;;;;;;4913182;29;20386;-84
2021/08/17 08:21:37;;;;;;;22.15;5.28;;;;;;;;;;4913993;29;20402;-84
2021/08/17 08:24:05;;;;;;;11.65;5.13;;;;;;;;;;4898645;29;20047;-78
2021/08/17 08:26:31;;;;;;;11.55;4.70;;;;;;;;;;4913438;29;20638;-77
2021/08/17 08:29:00;;;;;;;10.90;4.90;;;;;;;;;;4897585;29;20078;-70
2021/08/17 08:31:26;;;;;;;16.17;5.07;;;;;;;;;;4911895;29;20412;-72
2021/08/17 08:33:52;;;;;;;14.93;4.70;;;;;;;;;;4911196;29;20032;-70
2021/08/17 08:36:18;;;;;;;21.48;6.15;;;;;;;;;;4942990;28;20050;-79
2021/08/17 08:38:45;;;;;;;13.05;4.68;;;;;;;;;;4969503;28;20027;-79
2021/08/17 08:41:16;;;;;;;14.68;4.65;;;;;;;;;;4980768;28;20388;-82
2021/08/17 08:43:42;;;;;;;9.13;4.93;;;;;;;;;;4975089;28;20155;-74
2021/08/17 08:46:12;;;;;;;9.15;4.60;;;;;;;;;;4972301;28;20054;-75
2021/08/17 08:48:59;;;;;;;10.52;4.45;;;;;;;;;;4972701;28;20100;-72
2021/08/17 08:51:28;;;;;;;12.35;4.63;;;;;;;;;;4971430;28;20393;-71
2021/08/17 08:53:54;;;;;;;15.38;4.57;;;;;;;;;;4958589;28;20103;-70
2021/08/17 08:56:20;;;;;;;15.63;5.20;;;;;;;;;;4971722;28;20030;-77
2021/08/17 08:58:46;;;;;;;8.13;4.75;;;;;;;;;;4959655;28;20192;-78
2021/08/17 09:01:13;;;;;;;9.23;4.22;;;;;;;;;;4971639;28;20042;-82
2021/08/17 09:03:49;;;;;;;10.13;4.90;;;;;;;;;;4971674;28;20528;-81
2021/08/17 09:06:24;;;;;;;10.27;4.38;;;;;;;;;;4972008;28;20492;-72
2021/08/17 09:09:12;;;;;;;14.32;4.05;;;;;;;;;;4973066;28;20090;-72
2021/08/17 09:11:52;;;;;;;13.45;4.45;;;;;;;;;;4953080;28;20038;-73
2021/08/17 09:14:18;;;;;;;9.88;4.30;;;;;;;;;;4970054;28;20042;-73
2021/08/17 09:16:53;;;;;;;9.55;3.88;;;;;;;;;;4971142;28;20031;-70
2021/08/17 09:19:38;;;;;;;11.13;4.20;;;;;;;;;;4956640;28;20053;-81
2021/08/17 09:22:16;;;;;;;10.13;3.92;;;;;;;;;;4967942;28;20031;-80
2021/08/17 09:24:43;;;;;;;10.45;3.70;;;;;;;;;;4967746;28;20049;-70
2021/08/17 09:27:13;;;;;;;10.98;3.95;;;;;;;;;;4973375;28;20039;-70
2021/08/17 09:29:41;;;;;;;10.13;4.15;;;;;;;;;;4967517;28;20026;-69
2021/08/17 09:32:21;;;;;;;14.13;3.90;;;;;;;;;;4972429;28;20023;-70
2021/08/17 09:34:52;;;;;;;22.73;4.30;;;;;;;;;;4972625;28;20070;-67
2021/08/17 09:37:19;;;;;;;10.13;4.03;;;;;;;;;;4970689;28;20014;-69
2021/08/17 09:39:46;;;;;;;14.43;3.90;;;;;;;;;;4972473;28;20106;-69
2021/08/17 09:42:14;;;;;;;14.27;4.05;;;;;;;;;;4972699;28;20022;-69
2021/08/17 09:44:41;;;;;;;12.57;4.15;;;;;;;;;;4971493;28;20035;-79
2021/08/17 09:47:07;;;;;;;15.10;4.03;;;;;;;;;;4967171;28;20404;-69
2021/08/17 09:49:34;;;;;;;10.07;3.75;;;;;;;;;;4977576;28;20026;-68
2021/08/17 09:52:20;;;;;;;13.32;4.10;;;;;;;;;;4971292;28;20025;-67
2021/08/17 09:54:48;;;;;;;15.25;4.05;;;;;;;;;;4971108;28;20035;-66
2021/08/17 09:57:14;;;;;;;13.48;3.95;;;;;;;;;;4978107;28;20511;-66
2021/08/17 09:59:41;;;;;;;13.52;4.65;;;;;;;;;;4975687;28;20042;-66
2021/08/17 10:02:08;;;;;;;16.02;3.90;;;;;;;;;;4973371;28;20023;-66
2021/08/17 10:04:35;;;;;;;13.40;4.13;;;;;;;;;;4971261;28;20532;-68
2021/08/17 10:07:02;;;;;;;15.52;3.95;;;;;;;;;;4976692;28;20077;-68
2021/08/17 10:09:28;;;;;;;14.13;4.30;;;;;;;;;;4971736;28;20027;-68
2021/08/17 10:11:55;;;;;;;15.40;4.43;;;;;;;;;;4970272;28;20026;-68
2021/08/17 10:14:21;;;;;;;11.80;4.30;;;;;;;;;;4973725;28;20122;-68
2021/08/17 10:16:47;;;;;;;11.85;3.97;;;;;;;;;;4981507;28;20026;-68
2021/08/17 10:19:17;;;;;;;16.15;4.07;;;;;;;;;;4970404;28;20027;-67
2021/08/17 10:21:45;;;;;;;15.85;4.00;;;;;;;;;;4970368;28;20027;-67
2021/08/17 10:24:29;;;;;;;11.88;3.95;;;;;;;;;;4971960;28;20035;-68
2021/08/17 10:27:14;;;;;;;13.48;4.10;;;;;;;;;;4970977;28;20209;-67
2021/08/17 10:29:51;;;;;;;15.88;3.92;;;;;;;;;;4967590;28;20069;-67
2021/08/17 10:32:40;;;;;;;9.93;4.00;;;;;;;;;;4974220;28;20031;-69
2021/08/17 10:35:07;;;;;;;18.20;4.28;;;;;;;;;;4912375;29;20056;-68
2021/08/17 10:37:35;;;;;;;10.45;4.00;;;;;;;;;;4912187;29;20040;-69
2021/08/17 10:40:01;;;;;;;12.00;3.97;;;;;;;;;;4911716;29;20032;-70
2021/08/17 10:42:28;;;;;;;14.63;4.22;;;;;;;;;;4914587;29;20070;-68
2021/08/17 10:44:54;;;;;;;13.55;3.92;;;;;;;;;;4914424;29;20110;-69
2021/08/17 10:47:34;;;;;;;12.77;4.10;;;;;;;;;;4911966;29;20083;-77
2021/08/17 10:50:00;;;;;;;13.05;4.20;;;;;;;;;;4916831;29;20031;-69
2021/08/17 10:52:30;;;;;;;13.23;4.00;;;;;;;;;;4911359;29;20903;-70
2021/08/17 10:55:15;;;;;;;13.65;4.20;;;;;;;;;;4909718;29;20048;-67
2021/08/17 10:57:51;;;;;;;14.25;4.28;;;;;;;;;;4915141;29;20035;-85
2021/08/17 11:00:36;;;;;;;8.75;3.90;;;;;;;;;;4912376;29;20047;-71
2021/08/17 11:03:04;;;;;;;13.45;3.83;;;;;;;;;;4910256;29;20044;-69
2021/08/17 11:05:53;;;;;;;7.57;4.03;;;;;;;;;;4911637;29;20039;-71
2021/08/17 11:08:31;;;;;;;11.73;4.18;;;;;;;;;;4913307;29;20051;-69
2021/08/17 11:10:57;;;;;;;12.77;4.20;;;;;;;;;;4913013;28;20036;-70
2021/08/17 11:13:25;;;;;;;10.60;3.85;;;;;;;;;;4971186;28;20417;-69
2021/08/17 11:16:13;;;;;;;12.50;4.10;;;;;;;;;;4971648;28;20045;-70
2021/08/17 11:18:52;;;;;;;10.68;3.78;;;;;;;;;;4972370;28;20031;-68
2021/08/17 11:21:33;;;;;;;9.55;3.92;;;;;;;;;;4973790;28;20087;-68
2021/08/17 11:24:09;;;;;;;10.82;4.05;;;;;;;;;;4977098;28;20058;-69
2021/08/17 11:26:35;;;;;;;12.15;3.88;;;;;;;;;;4975902;28;20026;-71
2021/08/17 11:29:01;;;;;;;24.27;4.50;;;;;;;;;;4975053;28;20080;-69
2021/08/17 11:31:28;;;;;;;10.20;3.97;;;;;;;;;;4974403;28;20019;-67
2021/08/17 11:34:13;;;;;;;12.52;4.72;;;;;;;;;;4974177;28;20027;-68
2021/08/17 11:36:39;;;;;;;10.75;4.40;;;;;;;;;;4972712;28;20110;-68
2021/08/17 11:39:25;;;;;;;13.32;4.22;;;;;;;;;;4975614;28;20392;-70
2021/08/17 11:41:51;;;;;;;16.13;4.55;;;;;;;;;;4972017;28;20111;-69
2021/08/17 11:44:18;;;;;;;12.20;4.28;;;;;;;;;;4974492;28;20034;-70
2021/08/17 11:46:45;;;;;;;12.20;4.28;;;;;;;;;;4978995;28;20039;-69
2021/08/17 11:49:24;;;;;;;40.17;6.00;;;;;;;;;;4974819;28;20034;-69
2021/08/17 11:51:59;;;;;;;12.20;4.07;;;;;;;;;;4969518;28;20031;-68
2021/08/17 11:54:26;;;;;;;11.93;4.40;;;;;;;;;;4974120;28;20050;-69
2021/08/17 11:56:59;;;;;;;15.50;3.83;;;;;;;;;;4976075;28;20506;-68
2021/08/17 11:59:25;;;;;;;11.50;3.95;;;;;;;;;;4975235;28;20512;-68
2021/08/17 12:01:58;;;;;;;12.52;3.90;;;;;;;;;;4971218;28;20019;-68
2021/08/17 12:04:24;;;;;;;11.30;4.03;;;;;;;;;;4975995;28;20027;-68
2021/08/17 12:07:10;;;;;;;7.75;3.92;;;;;;;;;;4974182;28;20481;-67
2021/08/17 12:09:40;;;;;;;8.65;3.80;;;;;;;;;;4972510;28;20027;-68
2021/08/17 12:12:07;;;;;;;10.55;4.10;;;;;;;;;;4974487;28;20022;-67
2021/08/17 12:14:33;;;;;;;14.38;5.00;;;;;;;;;;4973894;28;20039;-68
2021/08/17 12:17:00;;;;;;;11.20;4.10;;;;;;;;;;4977780;28;20428;-68
2021/08/17 12:19:26;;;;;;;14.48;4.50;;;;;;;;;;4973895;28;20026;-69
2021/08/17 12:21:52;;;;;;;13.63;4.45;;;;;;;;;;4973480;28;20023;-67
2021/08/17 12:24:22;;;;;;;7.82;3.88;;;;;;;;;;4974869;28;20030;-68
2021/08/17 12:26:55;;;;;;;9.63;4.07;;;;;;;;;;4973530;28;20183;-70
2021/08/17 12:29:25;;;;;;;11.00;3.80;;;;;;;;;;4973991;28;20039;-68
2021/08/17 12:31:52;;;;;;;8.75;3.78;;;;;;;;;;4972882;28;20520;-68
2021/08/17 12:34:18;;;;;;;7.50;3.38;;;;;;;;;;4974061;28;20097;-68
2021/08/17 12:36:48;;;;;;;7.82;4.10;;;;;;;;;;4973056;28;20015;-68
2021/08/17 12:39:14;;;;;;;11.60;3.75;;;;;;;;;;4972032;28;20110;-69
2021/08/17 12:41:46;;;;;;;8.75;4.00;;;;;;;;;;4973476;28;20023;-69
2021/08/17 12:44:17;;;;;;;7.90;3.47;;;;;;;;;;4973440;28;20019;-69
2021/08/17 12:47:02;;;;;;;7.68;3.60;;;;;;;;;;4972983;28;20511;-68
2021/08/17 12:49:43;;;;;;;11.32;3.60;;;;;;;;;;4962244;28;20071;-68
2021/08/17 12:52:18;;;;;;;47.90;6.43;;;;;;;;;;4954238;28;20066;-67
2021/08/17 12:54:44;;;;;;;10.77;3.65;;;;;;;;;;4953385;28;20510;-68
2021/08/17 12:57:11;;;;;;;7.53;3.30;;;;;;;;;;4957569;28;20058;-69
2021/08/17 12:59:37;;;;;;;9.50;3.35;;;;;;;;;;4956000;28;20027;-69
2021/08/17 13:02:03;;;;;;;8.50;3.17;;;;;;;;;;4956500;28;20023;-68
2021/08/17 13:04:29;;;;;;;11.02;3.88;;;;;;;;;;4956976;28;20034;-68
2021/08/17 13:06:55;;;;;;;9.48;3.20;;;;;;;;;;4959496;28;20363;-69
2021/08/17 13:09:21;;;;;;;8.77;3.22;;;;;;;;;;4956381;28;20416;-70
2021/08/17 13:11:47;;;;;;;6.13;3.13;;;;;;;;;;4954014;29;20457;-68
2021/08/17 13:14:14;;;;;;;9.25;3.50;;;;;;;;;;4955108;28;20039;-69
2021/08/17 13:16:40;;;;;;;9.35;3.33;;;;;;;;;;4954359;28;20079;-68
2021/08/17 13:19:07;;;;;;;7.95;3.15;;;;;;;;;;4962882;28;20496;-70
2021/08/17 13:21:33;;;;;;;7.45;3.03;;;;;;;;;;4960481;28;20433;-68
2021/08/17 13:24:00;;;;;;;12.77;3.33;;;;;;;;;;4961432;28;20054;-69
2021/08/17 13:26:26;;;;;;;8.27;2.70;;;;;;;;;;4959202;28;20086;-69
2021/08/17 13:28:52;;;;;;;8.18;2.90;;;;;;;;;;4958617;28;20037;-69
2021/08/17 13:31:19;;;;;;;9.68;3.20;;;;;;;;;;4959926;28;20101;-69
2021/08/17 13:33:45;;;;;;;5.47;2.58;;;;;;;;;;4958117;28;20031;-69
2021/08/17 13:36:11;;;;;;;5.68;2.50;;;;;;;;;;4962174;28;20577;-69
2021/08/17 13:38:37;;;;;;;19.58;3.30;;;;;;;;;;4963160;28;20480;-70
2021/08/17 13:41:03;;;;;;;7.93;2.65;;;;;;;;;;4956333;28;20397;-69
2021/08/17 13:43:29;;;;;;;6.07;2.55;;;;;;;;;;4959573;28;20031;-69
2021/08/17 13:45:58;;;;;;;7.88;2.60;;;;;;;;;;4960853;28;20033;-69
2021/08/17 13:48:26;;;;;;;9.50;3.63;;;;;;;;;;4953007;29;20078;-70
2021/08/17 13:50:53;;;;;;;14.55;2.92;;;;;;;;;;4955956;28;20037;-69
2021/08/17 13:53:19;;;;;;;6.03;2.80;;;;;;;;;;4955684;28;20493;-69
2021/08/17 13:55:45;;;;;;;7.95;2.78;;;;;;;;;;4952831;28;20039;-69
2021/08/17 13:58:11;;;;;;;5.05;2.78;;;;;;;;;;4959867;28;20102;-69
2021/08/17 14:00:37;;;;;;;7.47;3.00;;;;;;;;;;4954861;28;20031;-67
2021/08/17 14:03:03;;;;;;;4.75;2.33;;;;;;;;;;4952669;28;20070;-68
2021/08/17 14:05:29;;;;;;;7.93;2.67;;;;;;;;;;4953025;28;20393;-70
2021/08/17 14:07:55;;;;;;;10.30;3.10;;;;;;;;;;4950799;28;20027;-69
2021/08/17 14:10:21;;;;;;;6.28;2.50;;;;;;;;;;4955689;28;20516;-69
2021/08/17 14:12:48;;;;;;;7.60;2.47;;;;;;;;;;4951612;29;20023;-70
2021/08/17 14:15:14;;;;;;;7.40;2.45;;;;;;;;;;4955273;28;20401;-70
2021/08/17 14:17:40;;;;;;;6.10;2.70;;;;;;;;;;4953387;28;20086;-68
2021/08/17 14:20:07;;;;;;;15.30;3.33;;;;;;;;;;4952784;29;20083;-69
2021/08/17 14:22:33;;;;;;;9.55;2.50;;;;;;;;;;4957012;28;20381;-68
2021/08/17 14:24:59;;;;;;;6.90;2.92;;;;;;;;;;4954933;28;20126;-69
2021/08/17 14:27:25;;;;;;;10.80;2.70;;;;;;;;;;4960396;28;20038;-70
2021/08/17 14:29:51;;;;;;;7.40;2.92;;;;;;;;;;4953655;28;20487;-69
2021/08/17 14:32:17;;;;;;;7.68;2.80;;;;;;;;;;4952483;29;20031;-68
2021/08/17 14:34:43;;;;;;;9.35;2.60;;;;;;;;;;4953876;28;20035;-69
2021/08/17 14:37:09;;;;;;;6.93;2.38;;;;;;;;;;4951452;28;20035;-69
2021/08/17 14:39:35;;;;;;;10.93;2.70;;;;;;;;;;4952839;28;20042;-68